sensor_id;sensor_type;location;lat;lon;timestamp;P1;durP1;ratioP1;P2;durP2;ratioP2
30243;SDS011;64022;53.652;9.792;2023-02-28T00:00:39;19.87;;;14.80;;
30243;SDS011;64022;53.652;9.792;2023-02-28T00:03:04;21.87;;;14.40;;
30243;SDS011;64022;53.652;9.792;2023-02-28T00:05:31;21.90;;;14.65;;
30243;SDS011;64022;53.652;9.792;2023-02-28T00:07:57;24.92;;;15.10;;
30243;SDS011;64022;53.652;9.792;2023-02-28T00:10:24;21.77;;;14.77;;
30243;SDS011;64022;53.652;9.792;2023-02-28T00:12:52;20.13;;;13.77;;
30243;SDS011;64022;53.652;9.792;2023-02-28T00:15:19;21.33;;;14.95;;
30243;SDS011;64022;53.652;9.792;2023-02-28T00:17:45;21.63;;;14.80;;
30243;SDS011;64022;53.652;9.792;2023-02-28T00:20:11;23.47;;;14.63;;
30243;SDS011;64022;53.652;9.792;2023-02-28T00:22:38;20.77;;;13.93;;
30243;SDS011;64022;53.652;9.792;2023-02-28T00:25:06;21.15;;;14.25;;
30243;SDS011;64022;53.652;9.792;2023-02-28T00:27:33;18.65;;;13.38;;
30243;SDS011;64022;53.652;9.792;2023-02-28T00:30:00;20.42;;;14.63;;
30243;SDS011;64022;53.652;9.792;2023-02-28T00:32:26;27.43;;;14.23;;
30243;SDS011;64022;53.652;9.792;2023-02-28T00:34:51;20.00;;;14.17;;
30243;SDS011;64022;53.652;9.792;2023-02-28T00:37:17;18.07;;;14.00;;
30243;SDS011;64022;53.652;9.792;2023-02-28T00:39:42;22.23;;;14.87;;
30243;SDS011;64022;53.652;9.792;2023-02-28T00:42:08;17.80;;;13.13;;
30243;SDS011;64022;53.652;9.792;2023-02-28T00:44:34;18.80;;;12.27;;
30243;SDS011;64022;53.652;9.792;2023-02-28T00:47:00;18.37;;;13.40;;
30243;SDS011;64022;53.652;9.792;2023-02-28T00:49:26;19.87;;;14.37;;
30243;SDS011;64022;53.652;9.792;2023-02-28T00:51:52;19.42;;;12.48;;
30243;SDS011;64022;53.652;9.792;2023-02-28T00:54:19;19.73;;;13.32;;
30243;SDS011;64022;53.652;9.792;2023-02-28T00:56:45;18.67;;;12.87;;
30243;SDS011;64022;53.652;9.792;2023-02-28T00:59:14;20.85;;;13.57;;
30243;SDS011;64022;53.652;9.792;2023-02-28T01:01:40;20.95;;;13.05;;
30243;SDS011;64022;53.652;9.792;2023-02-28T01:04:07;21.38;;;12.82;;
30243;SDS011;64022;53.652;9.792;2023-02-28T01:06:33;20.40;;;13.47;;
30243;SDS011;64022;53.652;9.792;2023-02-28T01:08:59;19.47;;;13.00;;
30243;SDS011;64022;53.652;9.792;2023-02-28T01:11:25;17.50;;;12.27;;
30243;SDS011;64022;53.652;9.792;2023-02-28T01:13:51;19.27;;;12.80;;
30243;SDS011;64022;53.652;9.792;2023-02-28T01:16:16;17.53;;;12.27;;
30243;SDS011;64022;53.652;9.792;2023-02-28T01:18:42;19.30;;;12.63;;
30243;SDS011;64022;53.652;9.792;2023-02-28T01:21:10;18.90;;;12.65;;
30243;SDS011;64022;53.652;9.792;2023-02-28T01:23:38;17.73;;;12.70;;
30243;SDS011;64022;53.652;9.792;2023-02-28T01:26:08;20.52;;;13.30;;
30243;SDS011;64022;53.652;9.792;2023-02-28T01:28:38;15.45;;;11.65;;
30243;SDS011;64022;53.652;9.792;2023-02-28T01:31:03;18.07;;;12.87;;
30243;SDS011;64022;53.652;9.792;2023-02-28T01:33:29;16.37;;;11.70;;
30243;SDS011;64022;53.652;9.792;2023-02-28T01:36:03;16.97;;;12.57;;
30243;SDS011;64022;53.652;9.792;2023-02-28T01:38:30;15.15;;;11.75;;
30243;SDS011;64022;53.652;9.792;2023-02-28T01:40:56;17.33;;;12.30;;
30243;SDS011;64022;53.652;9.792;2023-02-28T01:43:26;17.13;;;11.93;;
30243;SDS011;64022;53.652;9.792;2023-02-28T01:45:54;16.63;;;11.80;;
30243;SDS011;64022;53.652;9.792;2023-02-28T01:48:31;15.40;;;11.48;;
30243;SDS011;64022;53.652;9.792;2023-02-28T01:51:01;17.33;;;11.82;;
30243;SDS011;64022;53.652;9.792;2023-02-28T01:53:34;15.57;;;11.27;;
30243;SDS011;64022;53.652;9.792;2023-02-28T01:56:04;16.50;;;11.55;;
30243;SDS011;64022;53.652;9.792;2023-02-28T01:58:32;16.90;;;12.05;;
30243;SDS011;64022;53.652;9.792;2023-02-28T02:00:58;15.40;;;11.43;;
30243;SDS011;64022;53.652;9.792;2023-02-28T02:03:23;18.70;;;12.50;;
30243;SDS011;64022;53.652;9.792;2023-02-28T02:05:49;17.00;;;11.30;;
30243;SDS011;64022;53.652;9.792;2023-02-28T02:08:22;17.37;;;11.10;;
30243;SDS011;64022;53.652;9.792;2023-02-28T02:10:51;17.35;;;11.93;;
30243;SDS011;64022;53.652;9.792;2023-02-28T02:18:53;18.05;;;11.52;;
30243;SDS011;64022;53.652;9.792;2023-02-28T02:35:14;14.25;;;9.90;;
30243;SDS011;64022;53.652;9.792;2023-02-28T02:40:38;14.93;;;10.40;;
30243;SDS011;64022;53.652;9.792;2023-02-28T02:46:19;14.07;;;10.23;;
30243;SDS011;64022;53.652;9.792;2023-02-28T02:48:48;14.70;;;10.27;;
30243;SDS011;64022;53.652;9.792;2023-02-28T02:51:17;13.48;;;10.10;;
30243;SDS011;64022;53.652;9.792;2023-02-28T02:53:48;12.85;;;9.77;;
30243;SDS011;64022;53.652;9.792;2023-02-28T02:56:19;13.93;;;9.25;;
30243;SDS011;64022;53.652;9.792;2023-02-28T02:58:49;13.82;;;10.30;;
30243;SDS011;64022;53.652;9.792;2023-02-28T03:01:18;13.93;;;10.13;;
30243;SDS011;64022;53.652;9.792;2023-02-28T03:03:52;14.43;;;10.15;;
30243;SDS011;64022;53.652;9.792;2023-02-28T03:06:22;16.52;;;9.82;;
30243;SDS011;64022;53.652;9.792;2023-02-28T03:08:47;14.43;;;9.80;;
30243;SDS011;64022;53.652;9.792;2023-02-28T03:11:14;14.15;;;9.93;;
30243;SDS011;64022;53.652;9.792;2023-02-28T03:16:49;13.65;;;9.82;;
30243;SDS011;64022;53.652;9.792;2023-02-28T03:27:30;12.98;;;9.38;;
30243;SDS011;64022;53.652;9.792;2023-02-28T03:30:25;13.25;;;9.35;;
30243;SDS011;64022;53.652;9.792;2023-02-28T03:32:59;13.02;;;9.13;;
30243;SDS011;64022;53.652;9.792;2023-02-28T03:35:47;12.18;;;8.95;;
30243;SDS011;64022;53.652;9.792;2023-02-28T03:38:59;12.32;;;8.45;;
30243;SDS011;64022;53.652;9.792;2023-02-28T03:43:43;12.55;;;8.77;;
30243;SDS011;64022;53.652;9.792;2023-02-28T03:46:15;10.45;;;7.78;;
30243;SDS011;64022;53.652;9.792;2023-02-28T03:48:48;12.88;;;8.73;;
30243;SDS011;64022;53.652;9.792;2023-02-28T03:51:34;10.32;;;8.07;;
30243;SDS011;64022;53.652;9.792;2023-02-28T03:54:13;12.35;;;8.63;;
30243;SDS011;64022;53.652;9.792;2023-02-28T03:56:43;12.40;;;8.32;;
30243;SDS011;64022;53.652;9.792;2023-02-28T03:59:26;11.05;;;7.85;;
30243;SDS011;64022;53.652;9.792;2023-02-28T04:01:55;10.88;;;7.90;;
30243;SDS011;64022;53.652;9.792;2023-02-28T04:04:23;10.32;;;7.50;;
30243;SDS011;64022;53.652;9.792;2023-02-28T04:06:49;11.40;;;7.33;;
30243;SDS011;64022;53.652;9.792;2023-02-28T04:09:25;11.10;;;7.97;;
30243;SDS011;64022;53.652;9.792;2023-02-28T04:11:51;11.60;;;8.10;;
30243;SDS011;64022;53.652;9.792;2023-02-28T04:14:17;8.82;;;7.38;;
30243;SDS011;64022;53.652;9.792;2023-02-28T04:16:43;9.50;;;7.20;;
30243;SDS011;64022;53.652;9.792;2023-02-28T04:19:10;11.32;;;7.90;;
30243;SDS011;64022;53.652;9.792;2023-02-28T04:21:41;9.18;;;6.85;;
30243;SDS011;64022;53.652;9.792;2023-02-28T04:24:09;10.73;;;7.47;;
30243;SDS011;64022;53.652;9.792;2023-02-28T04:26:39;9.20;;;5.70;;
30243;SDS011;64022;53.652;9.792;2023-02-28T04:29:06;7.85;;;5.07;;
30243;SDS011;64022;53.652;9.792;2023-02-28T04:31:32;9.77;;;4.55;;
30243;SDS011;64022;53.652;9.792;2023-02-28T04:33:58;6.93;;;5.00;;
30243;SDS011;64022;53.652;9.792;2023-02-28T04:36:24;8.73;;;5.53;;
30243;SDS011;64022;53.652;9.792;2023-02-28T04:38:50;10.33;;;5.90;;
30243;SDS011;64022;53.652;9.792;2023-02-28T04:41:16;11.73;;;6.40;;
30243;SDS011;64022;53.652;9.792;2023-02-28T04:43:42;7.95;;;4.80;;
30243;SDS011;64022;53.652;9.792;2023-02-28T04:46:08;10.70;;;5.60;;
30243;SDS011;64022;53.652;9.792;2023-02-28T04:48:35;10.10;;;5.28;;
30243;SDS011;64022;53.652;9.792;2023-02-28T04:51:07;9.80;;;5.53;;
30243;SDS011;64022;53.652;9.792;2023-02-28T04:53:35;8.13;;;5.07;;
30243;SDS011;64022;53.652;9.792;2023-02-28T04:56:02;8.95;;;5.53;;
30243;SDS011;64022;53.652;9.792;2023-02-28T04:58:29;10.88;;;5.25;;
30243;SDS011;64022;53.652;9.792;2023-02-28T05:01:01;8.27;;;5.10;;
30243;SDS011;64022;53.652;9.792;2023-02-28T05:03:50;7.15;;;5.03;;
30243;SDS011;64022;53.652;9.792;2023-02-28T05:06:18;8.70;;;5.13;;
30243;SDS011;64022;53.652;9.792;2023-02-28T05:08:45;9.35;;;4.97;;
30243;SDS011;64022;53.652;9.792;2023-02-28T05:11:18;7.30;;;4.63;;
30243;SDS011;64022;53.652;9.792;2023-02-28T05:13:46;6.15;;;4.63;;
30243;SDS011;64022;53.652;9.792;2023-02-28T05:16:12;7.25;;;4.82;;
30243;SDS011;64022;53.652;9.792;2023-02-28T05:18:38;6.60;;;4.50;;
30243;SDS011;64022;53.652;9.792;2023-02-28T05:21:04;9.33;;;4.67;;
30243;SDS011;64022;53.652;9.792;2023-02-28T05:23:30;6.95;;;4.35;;
30243;SDS011;64022;53.652;9.792;2023-02-28T05:25:56;8.33;;;4.77;;
30243;SDS011;64022;53.652;9.792;2023-02-28T05:28:22;7.90;;;4.80;;
30243;SDS011;64022;53.652;9.792;2023-02-28T05:30:47;8.37;;;5.47;;
30243;SDS011;64022;53.652;9.792;2023-02-28T05:33:13;8.13;;;4.37;;
30243;SDS011;64022;53.652;9.792;2023-02-28T05:35:39;5.17;;;4.30;;
30243;SDS011;64022;53.652;9.792;2023-02-28T05:38:05;6.60;;;4.10;;
30243;SDS011;64022;53.652;9.792;2023-02-28T05:40:31;8.87;;;4.80;;
30243;SDS011;64022;53.652;9.792;2023-02-28T05:42:56;7.83;;;4.73;;
30243;SDS011;64022;53.652;9.792;2023-02-28T05:45:22;6.93;;;4.50;;
30243;SDS011;64022;53.652;9.792;2023-02-28T05:47:48;8.27;;;4.70;;
30243;SDS011;64022;53.652;9.792;2023-02-28T05:50:13;8.63;;;4.90;;
30243;SDS011;64022;53.652;9.792;2023-02-28T05:52:39;8.33;;;4.67;;
30243;SDS011;64022;53.652;9.792;2023-02-28T05:55:04;7.10;;;4.20;;
30243;SDS011;64022;53.652;9.792;2023-02-28T05:57:30;6.63;;;4.45;;
30243;SDS011;64022;53.652;9.792;2023-02-28T05:59:56;7.73;;;4.63;;
30243;SDS011;64022;53.652;9.792;2023-02-28T06:02:21;7.33;;;4.23;;
30243;SDS011;64022;53.652;9.792;2023-02-28T06:04:47;7.97;;;5.00;;
30243;SDS011;64022;53.652;9.792;2023-02-28T06:07:12;6.03;;;4.00;;
30243;SDS011;64022;53.652;9.792;2023-02-28T06:09:38;6.10;;;4.07;;
30243;SDS011;64022;53.652;9.792;2023-02-28T06:12:04;6.63;;;4.07;;
30243;SDS011;64022;53.652;9.792;2023-02-28T06:14:32;6.85;;;4.18;;
30243;SDS011;64022;53.652;9.792;2023-02-28T06:16:59;6.20;;;3.97;;
30243;SDS011;64022;53.652;9.792;2023-02-28T06:19:25;7.63;;;4.47;;
30243;SDS011;64022;53.652;9.792;2023-02-28T06:21:51;5.57;;;4.23;;
30243;SDS011;64022;53.652;9.792;2023-02-28T06:24:21;7.00;;;4.10;;
30243;SDS011;64022;53.652;9.792;2023-02-28T06:26:48;5.95;;;4.05;;
30243;SDS011;64022;53.652;9.792;2023-02-28T06:29:14;5.23;;;3.60;;
30243;SDS011;64022;53.652;9.792;2023-02-28T06:31:44;5.30;;;4.18;;
30243;SDS011;64022;53.652;9.792;2023-02-28T06:36:38;4.90;;;3.40;;
30243;SDS011;64022;53.652;9.792;2023-02-28T06:41:30;5.47;;;3.65;;
30243;SDS011;64022;53.652;9.792;2023-02-28T06:43:56;6.17;;;3.87;;
30243;SDS011;64022;53.652;9.792;2023-02-28T06:46:22;6.93;;;4.00;;
30243;SDS011;64022;53.652;9.792;2023-02-28T06:48:48;6.82;;;4.05;;
30243;SDS011;64022;53.652;9.792;2023-02-28T06:51:16;5.53;;;4.00;;
30243;SDS011;64022;53.652;9.792;2023-02-28T06:53:45;7.75;;;4.50;;
30243;SDS011;64022;53.652;9.792;2023-02-28T06:56:12;8.45;;;3.85;;
30243;SDS011;64022;53.652;9.792;2023-02-28T06:58:38;5.15;;;3.70;;
30243;SDS011;64022;53.652;9.792;2023-02-28T07:01:04;5.60;;;3.83;;
30243;SDS011;64022;53.652;9.792;2023-02-28T07:03:30;6.22;;;4.03;;
30243;SDS011;64022;53.652;9.792;2023-02-28T07:05:56;6.07;;;3.87;;
30243;SDS011;64022;53.652;9.792;2023-02-28T07:08:23;6.00;;;4.03;;
30243;SDS011;64022;53.652;9.792;2023-02-28T07:13:21;6.75;;;4.43;;
30243;SDS011;64022;53.652;9.792;2023-02-28T07:15:56;5.67;;;3.63;;
30243;SDS011;64022;53.652;9.792;2023-02-28T07:18:24;6.15;;;4.38;;
30243;SDS011;64022;53.652;9.792;2023-02-28T07:20:51;6.47;;;4.30;;
30243;SDS011;64022;53.652;9.792;2023-02-28T07:23:17;5.57;;;4.13;;
30243;SDS011;64022;53.652;9.792;2023-02-28T07:25:43;6.37;;;4.07;;
30243;SDS011;64022;53.652;9.792;2023-02-28T07:28:08;6.10;;;4.03;;
30243;SDS011;64022;53.652;9.792;2023-02-28T07:30:34;4.97;;;4.33;;
30243;SDS011;64022;53.652;9.792;2023-02-28T07:32:59;5.97;;;4.43;;
30243;SDS011;64022;53.652;9.792;2023-02-28T07:35:25;7.23;;;4.40;;
30243;SDS011;64022;53.652;9.792;2023-02-28T07:37:51;7.13;;;5.00;;
30243;SDS011;64022;53.652;9.792;2023-02-28T07:40:16;6.23;;;4.47;;
30243;SDS011;64022;53.652;9.792;2023-02-28T07:42:42;7.65;;;4.40;;
30243;SDS011;64022;53.652;9.792;2023-02-28T07:45:08;6.27;;;4.43;;
30243;SDS011;64022;53.652;9.792;2023-02-28T07:47:36;6.22;;;4.85;;
30243;SDS011;64022;53.652;9.792;2023-02-28T07:50:03;7.32;;;4.90;;
30243;SDS011;64022;53.652;9.792;2023-02-28T07:52:28;7.63;;;4.70;;
30243;SDS011;64022;53.652;9.792;2023-02-28T07:54:54;5.63;;;4.60;;
30243;SDS011;64022;53.652;9.792;2023-02-28T07:57:19;8.97;;;5.10;;
30243;SDS011;64022;53.652;9.792;2023-02-28T07:59:45;8.97;;;5.40;;
30243;SDS011;64022;53.652;9.792;2023-02-28T08:02:12;6.67;;;4.87;;
30243;SDS011;64022;53.652;9.792;2023-02-28T08:04:39;8.18;;;5.40;;
30243;SDS011;64022;53.652;9.792;2023-02-28T08:07:04;6.97;;;5.40;;
30243;SDS011;64022;53.652;9.792;2023-02-28T08:09:30;7.67;;;5.50;;
30243;SDS011;64022;53.652;9.792;2023-02-28T08:11:56;8.80;;;6.67;;
30243;SDS011;64022;53.652;9.792;2023-02-28T08:14:21;10.53;;;7.60;;
30243;SDS011;64022;53.652;9.792;2023-02-28T08:16:47;9.10;;;6.80;;
30243;SDS011;64022;53.652;9.792;2023-02-28T08:19:12;11.37;;;7.70;;
30243;SDS011;64022;53.652;9.792;2023-02-28T08:21:38;11.80;;;7.77;;
30243;SDS011;64022;53.652;9.792;2023-02-28T08:24:04;13.45;;;8.52;;
30243;SDS011;64022;53.652;9.792;2023-02-28T08:26:30;11.00;;;7.97;;
30243;SDS011;64022;53.652;9.792;2023-02-28T08:28:56;14.43;;;8.77;;
30243;SDS011;64022;53.652;9.792;2023-02-28T08:31:21;10.90;;;8.00;;
30243;SDS011;64022;53.652;9.792;2023-02-28T08:33:48;11.33;;;7.80;;
30243;SDS011;64022;53.652;9.792;2023-02-28T08:36:16;12.30;;;8.23;;
30243;SDS011;64022;53.652;9.792;2023-02-28T08:38:42;11.23;;;8.17;;
30243;SDS011;64022;53.652;9.792;2023-02-28T08:41:09;11.07;;;8.17;;
30243;SDS011;64022;53.652;9.792;2023-02-28T08:43:36;12.80;;;8.68;;
30243;SDS011;64022;53.652;9.792;2023-02-28T08:46:02;11.88;;;8.20;;
30243;SDS011;64022;53.652;9.792;2023-02-28T08:48:29;12.57;;;8.77;;
30243;SDS011;64022;53.652;9.792;2023-02-28T08:53:29;11.30;;;8.43;;
30243;SDS011;64022;53.652;9.792;2023-02-28T08:56:03;13.25;;;8.43;;
30243;SDS011;64022;53.652;9.792;2023-02-28T08:58:29;11.05;;;8.60;;
30243;SDS011;64022;53.652;9.792;2023-02-28T09:00:55;11.50;;;8.67;;
30243;SDS011;64022;53.652;9.792;2023-02-28T09:03:21;12.18;;;7.95;;
30243;SDS011;64022;53.652;9.792;2023-02-28T09:05:54;12.82;;;9.07;;
30243;SDS011;64022;53.652;9.792;2023-02-28T09:08:28;13.32;;;9.10;;
30243;SDS011;64022;53.652;9.792;2023-02-28T09:10:55;12.25;;;8.93;;
30243;SDS011;64022;53.652;9.792;2023-02-28T09:13:22;12.18;;;8.95;;
30243;SDS011;64022;53.652;9.792;2023-02-28T09:15:49;13.30;;;8.90;;
30243;SDS011;64022;53.652;9.792;2023-02-28T09:18:14;9.23;;;5.93;;
30243;SDS011;64022;53.652;9.792;2023-02-28T09:20:41;5.23;;;2.80;;
30243;SDS011;64022;53.652;9.792;2023-02-28T09:23:08;4.57;;;2.20;;
30243;SDS011;64022;53.652;9.792;2023-02-28T09:25:35;7.53;;;3.05;;
30243;SDS011;64022;53.652;9.792;2023-02-28T09:28:01;6.07;;;4.15;;
30243;SDS011;64022;53.652;9.792;2023-02-28T09:30:27;7.00;;;5.05;;
30243;SDS011;64022;53.652;9.792;2023-02-28T09:32:53;7.40;;;4.78;;
30243;SDS011;64022;53.652;9.792;2023-02-28T09:35:20;8.47;;;5.00;;
30243;SDS011;64022;53.652;9.792;2023-02-28T09:37:50;9.20;;;4.45;;
30243;SDS011;64022;53.652;9.792;2023-02-28T09:40:16;6.93;;;4.85;;
30243;SDS011;64022;53.652;9.792;2023-02-28T09:42:45;7.40;;;4.63;;
30243;SDS011;64022;53.652;9.792;2023-02-28T09:45:20;6.82;;;4.63;;
30243;SDS011;64022;53.652;9.792;2023-02-28T09:48:12;7.32;;;5.22;;
30243;SDS011;64022;53.652;9.792;2023-02-28T09:53:28;9.70;;;4.78;;
30243;SDS011;64022;53.652;9.792;2023-02-28T09:56:37;10.90;;;5.30;;
30243;SDS011;64022;53.652;9.792;2023-02-28T09:58:59;8.35;;;5.13;;
30243;SDS011;64022;53.652;9.792;2023-02-28T10:01:39;9.85;;;5.13;;
30243;SDS011;64022;53.652;9.792;2023-02-28T10:07:07;5.28;;;4.55;;
30243;SDS011;64022;53.652;9.792;2023-02-28T10:09:43;8.68;;;4.88;;
30243;SDS011;64022;53.652;9.792;2023-02-28T10:12:14;9.35;;;4.65;;
30243;SDS011;64022;53.652;9.792;2023-02-28T10:14:43;7.45;;;4.35;;
30243;SDS011;64022;53.652;9.792;2023-02-28T10:17:12;10.57;;;4.90;;
30243;SDS011;64022;53.652;9.792;2023-02-28T10:19:43;7.72;;;4.70;;
30243;SDS011;64022;53.652;9.792;2023-02-28T10:22:37;10.15;;;5.78;;
30243;SDS011;64022;53.652;9.792;2023-02-28T10:25:22;9.63;;;5.25;;
30243;SDS011;64022;53.652;9.792;2023-02-28T10:27:53;7.90;;;4.90;;
30243;SDS011;64022;53.652;9.792;2023-02-28T10:30:23;9.57;;;5.72;;
30243;SDS011;64022;53.652;9.792;2023-02-28T10:32:50;8.53;;;5.33;;
30243;SDS011;64022;53.652;9.792;2023-02-28T10:35:21;11.82;;;5.57;;
30243;SDS011;64022;53.652;9.792;2023-02-28T10:37:57;11.75;;;6.03;;
30243;SDS011;64022;53.652;9.792;2023-02-28T10:40:26;7.43;;;5.05;;
30243;SDS011;64022;53.652;9.792;2023-02-28T10:43:04;11.20;;;5.43;;
30243;SDS011;64022;53.652;9.792;2023-02-28T10:45:52;10.02;;;5.75;;
30243;SDS011;64022;53.652;9.792;2023-02-28T10:48:33;10.57;;;5.15;;
30243;SDS011;64022;53.652;9.792;2023-02-28T10:50:59;14.55;;;5.68;;
30243;SDS011;64022;53.652;9.792;2023-02-28T10:53:31;8.15;;;5.47;;
30243;SDS011;64022;53.652;9.792;2023-02-28T10:58:53;9.38;;;5.45;;
30243;SDS011;64022;53.652;9.792;2023-02-28T11:01:22;12.20;;;5.47;;
30243;SDS011;64022;53.652;9.792;2023-02-28T11:04:03;10.93;;;5.00;;
30243;SDS011;64022;53.652;9.792;2023-02-28T11:07:20;7.60;;;4.93;;
30243;SDS011;64022;53.652;9.792;2023-02-28T11:09:51;9.55;;;5.03;;
30243;SDS011;64022;53.652;9.792;2023-02-28T11:15:04;10.95;;;5.00;;
30243;SDS011;64022;53.652;9.792;2023-02-28T11:17:43;12.48;;;5.40;;
30243;SDS011;64022;53.652;9.792;2023-02-28T11:20:10;11.13;;;5.73;;
30243;SDS011;64022;53.652;9.792;2023-02-28T11:22:45;12.50;;;5.85;;
30243;SDS011;64022;53.652;9.792;2023-02-28T11:25:25;10.27;;;5.60;;
30243;SDS011;64022;53.652;9.792;2023-02-28T11:27:58;8.55;;;5.13;;
30243;SDS011;64022;53.652;9.792;2023-02-28T11:33:18;7.75;;;5.03;;
30243;SDS011;64022;53.652;9.792;2023-02-28T11:35:51;12.80;;;5.65;;
30243;SDS011;64022;53.652;9.792;2023-02-28T11:38:19;11.85;;;5.25;;
30243;SDS011;64022;53.652;9.792;2023-02-28T11:46:24;10.18;;;5.22;;
30243;SDS011;64022;53.652;9.792;2023-02-28T11:54:54;10.82;;;5.03;;
30243;SDS011;64022;53.652;9.792;2023-02-28T12:03:17;11.85;;;4.85;;
30243;SDS011;64022;53.652;9.792;2023-02-28T12:06:09;8.52;;;4.85;;
30243;SDS011;64022;53.652;9.792;2023-02-28T12:22:28;7.30;;;4.32;;
30243;SDS011;64022;53.652;9.792;2023-02-28T12:27:46;9.65;;;5.18;;
30243;SDS011;64022;53.652;9.792;2023-02-28T12:33:09;7.40;;;4.45;;
30243;SDS011;64022;53.652;9.792;2023-02-28T12:35:37;10.10;;;4.75;;
30243;SDS011;64022;53.652;9.792;2023-02-28T12:38:12;10.95;;;4.82;;
30243;SDS011;64022;53.652;9.792;2023-02-28T12:40:45;9.73;;;4.72;;
30243;SDS011;64022;53.652;9.792;2023-02-28T12:43:31;7.15;;;4.57;;
30243;SDS011;64022;53.652;9.792;2023-02-28T12:46:02;8.13;;;4.97;;
30243;SDS011;64022;53.652;9.792;2023-02-28T12:48:37;6.75;;;4.15;;
30243;SDS011;64022;53.652;9.792;2023-02-28T12:51:07;7.65;;;4.28;;
30243;SDS011;64022;53.652;9.792;2023-02-28T12:59:28;7.63;;;4.32;;
30243;SDS011;64022;53.652;9.792;2023-02-28T13:08:27;7.97;;;4.53;;
30243;SDS011;64022;53.652;9.792;2023-02-28T13:11:23;8.32;;;4.10;;
30243;SDS011;64022;53.652;9.792;2023-02-28T13:13:57;7.90;;;3.80;;
30243;SDS011;64022;53.652;9.792;2023-02-28T13:16:25;9.07;;;3.80;;
30243;SDS011;64022;53.652;9.792;2023-02-28T13:18:51;7.70;;;4.10;;
30243;SDS011;64022;53.652;9.792;2023-02-28T13:34:27;6.53;;;3.92;;
30243;SDS011;64022;53.652;9.792;2023-02-28T13:39:51;6.95;;;3.30;;
30243;SDS011;64022;53.652;9.792;2023-02-28T13:55:45;6.05;;;3.47;;
30243;SDS011;64022;53.652;9.792;2023-02-28T14:06:34;5.13;;;3.38;;
30243;SDS011;64022;53.652;9.792;2023-02-28T14:11:33;9.13;;;3.60;;
30243;SDS011;64022;53.652;9.792;2023-02-28T14:14:09;7.82;;;3.67;;
30243;SDS011;64022;53.652;9.792;2023-02-28T14:17:00;7.70;;;3.78;;
30243;SDS011;64022;53.652;9.792;2023-02-28T14:19:31;7.55;;;3.20;;
30243;SDS011;64022;53.652;9.792;2023-02-28T14:22:12;5.63;;;3.40;;
30243;SDS011;64022;53.652;9.792;2023-02-28T14:27:39;6.05;;;3.80;;
30243;SDS011;64022;53.652;9.792;2023-02-28T14:33:27;7.53;;;3.83;;
30243;SDS011;64022;53.652;9.792;2023-02-28T14:36:10;8.20;;;3.83;;
30243;SDS011;64022;53.652;9.792;2023-02-28T14:38:52;5.97;;;4.03;;
30243;SDS011;64022;53.652;9.792;2023-02-28T14:41:23;8.10;;;4.32;;
30243;SDS011;64022;53.652;9.792;2023-02-28T14:44:01;7.68;;;4.30;;
30243;SDS011;64022;53.652;9.792;2023-02-28T14:46:39;6.35;;;4.15;;
30243;SDS011;64022;53.652;9.792;2023-02-28T14:49:06;6.53;;;4.13;;
30243;SDS011;64022;53.652;9.792;2023-02-28T14:51:37;11.25;;;4.70;;
30243;SDS011;64022;53.652;9.792;2023-02-28T14:54:03;7.87;;;4.70;;
30243;SDS011;64022;53.652;9.792;2023-02-28T14:56:36;6.90;;;4.38;;
30243;SDS011;64022;53.652;9.792;2023-02-28T14:59:04;6.47;;;4.18;;
30243;SDS011;64022;53.652;9.792;2023-02-28T15:01:30;8.70;;;4.95;;
30243;SDS011;64022;53.652;9.792;2023-02-28T15:04:03;8.65;;;5.13;;
30243;SDS011;64022;53.652;9.792;2023-02-28T15:06:30;9.45;;;5.18;;
30243;SDS011;64022;53.652;9.792;2023-02-28T15:11:55;7.55;;;5.53;;
30243;SDS011;64022;53.652;9.792;2023-02-28T15:14:21;9.87;;;5.67;;
30243;SDS011;64022;53.652;9.792;2023-02-28T15:16:56;9.77;;;5.60;;
30243;SDS011;64022;53.652;9.792;2023-02-28T15:19:30;11.70;;;6.00;;
30243;SDS011;64022;53.652;9.792;2023-02-28T15:22:04;10.55;;;5.80;;
30243;SDS011;64022;53.652;9.792;2023-02-28T15:27:05;10.88;;;6.10;;
30243;SDS011;64022;53.652;9.792;2023-02-28T15:29:44;10.93;;;6.13;;
30243;SDS011;64022;53.652;9.792;2023-02-28T15:34:50;12.43;;;6.95;;
30243;SDS011;64022;53.652;9.792;2023-02-28T15:40:17;10.27;;;6.38;;
30243;SDS011;64022;53.652;9.792;2023-02-28T15:42:59;10.52;;;6.70;;
30243;SDS011;64022;53.652;9.792;2023-02-28T15:45:33;9.60;;;6.63;;
30243;SDS011;64022;53.652;9.792;2023-02-28T15:48:11;10.57;;;6.88;;
30243;SDS011;64022;53.652;9.792;2023-02-28T15:50:41;10.90;;;6.95;;
30243;SDS011;64022;53.652;9.792;2023-02-28T15:53:14;9.47;;;6.70;;
30243;SDS011;64022;53.652;9.792;2023-02-28T15:55:42;13.20;;;7.03;;
30243;SDS011;64022;53.652;9.792;2023-02-28T15:58:09;16.70;;;7.97;;
30243;SDS011;64022;53.652;9.792;2023-02-28T16:00:38;12.07;;;7.50;;
30243;SDS011;64022;53.652;9.792;2023-02-28T16:08:41;10.17;;;6.90;;
30243;SDS011;64022;53.652;9.792;2023-02-28T16:11:08;12.70;;;7.80;;
30243;SDS011;64022;53.652;9.792;2023-02-28T16:13:34;10.80;;;7.63;;
30243;SDS011;64022;53.652;9.792;2023-02-28T16:16:00;11.67;;;7.83;;
30243;SDS011;64022;53.652;9.792;2023-02-28T16:18:26;11.70;;;7.47;;
30243;SDS011;64022;53.652;9.792;2023-02-28T16:20:52;12.73;;;8.13;;
30243;SDS011;64022;53.652;9.792;2023-02-28T16:23:17;13.03;;;7.43;;
30243;SDS011;64022;53.652;9.792;2023-02-28T16:25:43;10.63;;;7.63;;
30243;SDS011;64022;53.652;9.792;2023-02-28T16:30:45;11.82;;;8.18;;
30243;SDS011;64022;53.652;9.792;2023-02-28T16:33:11;13.53;;;9.27;;
30243;SDS011;64022;53.652;9.792;2023-02-28T16:35:36;12.13;;;8.53;;
30243;SDS011;64022;53.652;9.792;2023-02-28T16:38:02;11.77;;;8.17;;
30243;SDS011;64022;53.652;9.792;2023-02-28T16:40:27;12.60;;;9.10;;
30243;SDS011;64022;53.652;9.792;2023-02-28T16:42:58;12.68;;;8.60;;
30243;SDS011;64022;53.652;9.792;2023-02-28T16:45:26;12.38;;;8.07;;
30243;SDS011;64022;53.652;9.792;2023-02-28T16:47:53;13.05;;;8.63;;
30243;SDS011;64022;53.652;9.792;2023-02-28T16:52:47;11.80;;;8.32;;
30243;SDS011;64022;53.652;9.792;2023-02-28T16:55:14;18.13;;;9.85;;
30243;SDS011;64022;53.652;9.792;2023-02-28T16:57:40;16.70;;;8.90;;
30243;SDS011;64022;53.652;9.792;2023-02-28T17:00:08;13.35;;;8.70;;
30243;SDS011;64022;53.652;9.792;2023-02-28T17:02:37;11.65;;;9.00;;
30243;SDS011;64022;53.652;9.792;2023-02-28T17:05:03;11.87;;;9.07;;
30243;SDS011;64022;53.652;9.792;2023-02-28T17:07:29;12.43;;;9.37;;
30243;SDS011;64022;53.652;9.792;2023-02-28T17:09:55;12.43;;;9.40;;
30243;SDS011;64022;53.652;9.792;2023-02-28T17:12:20;14.90;;;9.87;;
30243;SDS011;64022;53.652;9.792;2023-02-28T17:14:46;14.23;;;9.83;;
30243;SDS011;64022;53.652;9.792;2023-02-28T17:17:15;13.73;;;9.87;;
30243;SDS011;64022;53.652;9.792;2023-02-28T17:19:44;18.17;;;10.98;;
30243;SDS011;64022;53.652;9.792;2023-02-28T17:22:10;14.00;;;10.73;;
30243;SDS011;64022;53.652;9.792;2023-02-28T17:24:35;15.63;;;10.93;;
30243;SDS011;64022;53.652;9.792;2023-02-28T17:27:01;16.53;;;11.20;;
30243;SDS011;64022;53.652;9.792;2023-02-28T17:29:27;16.85;;;11.05;;
30243;SDS011;64022;53.652;9.792;2023-02-28T17:31:53;17.67;;;10.80;;
30243;SDS011;64022;53.652;9.792;2023-02-28T17:34:18;16.27;;;11.87;;
30243;SDS011;64022;53.652;9.792;2023-02-28T17:36:45;20.58;;;12.50;;
30243;SDS011;64022;53.652;9.792;2023-02-28T17:39:12;19.42;;;13.27;;
30243;SDS011;64022;53.652;9.792;2023-02-28T17:41:48;19.40;;;13.13;;
30243;SDS011;64022;53.652;9.792;2023-02-28T17:44:15;20.60;;;14.20;;
30243;SDS011;64022;53.652;9.792;2023-02-28T17:46:40;22.43;;;15.10;;
30243;SDS011;64022;53.652;9.792;2023-02-28T17:49:08;25.92;;;15.68;;
30243;SDS011;64022;53.652;9.792;2023-02-28T17:51:33;21.27;;;14.48;;